createdAt,value
2017-06-21T00:00:58.638Z,11.50
2017-06-21T00:03:25.309Z,11.73
2017-06-21T00:05:51.997Z,13.17
2017-06-21T00:08:18.681Z,12.23
2017-06-21T00:10:45.344Z,11.77
2017-06-21T00:13:12.061Z,12.80
2017-06-21T00:15:38.727Z,13.43
2017-06-21T00:18:05.411Z,12.67
2017-06-21T00:20:32.111Z,12.17
2017-06-21T00:22:58.783Z,12.37
2017-06-21T00:25:25.447Z,13.17
2017-06-21T00:27:52.147Z,12.80
2017-06-21T00:30:18.845Z,13.23
2017-06-21T00:32:45.548Z,12.40
2017-06-21T00:35:12.289Z,12.33
2017-06-21T00:37:38.957Z,12.03
2017-06-21T00:40:05.621Z,12.37
2017-06-21T00:42:32.355Z,12.30
2017-06-21T00:44:59.041Z,12.00
2017-06-21T00:47:26.712Z,12.50
2017-06-21T00:49:53.404Z,12.80
2017-06-21T00:52:20.076Z,12.70
2017-06-21T00:54:46.751Z,12.00
2017-06-21T00:57:13.655Z,12.30
2017-06-21T00:59:40.327Z,11.87
2017-06-21T01:02:06.992Z,12.27
2017-06-21T01:04:33.707Z,11.30
2017-06-21T01:07:00.371Z,11.77
2017-06-21T01:09:27.058Z,10.80
2017-06-21T01:11:53.792Z,11.07
2017-06-21T01:14:20.457Z,10.93
2017-06-21T01:16:47.128Z,11.53
2017-06-21T01:19:13.842Z,11.57
2017-06-21T01:21:40.521Z,11.83
2017-06-21T01:24:07.195Z,11.73
2017-06-21T01:26:34.071Z,11.00
2017-06-21T01:29:00.767Z,11.67
2017-06-21T01:31:27.434Z,11.30
2017-06-21T01:33:54.151Z,11.00
2017-06-21T01:36:20.819Z,11.30
2017-06-21T01:38:47.480Z,11.63
2017-06-21T01:41:14.229Z,11.67
2017-06-21T01:43:40.912Z,10.90
2017-06-21T01:46:07.576Z,11.93
2017-06-21T01:48:34.269Z,11.60
2017-06-21T01:51:00.957Z,11.20
2017-06-21T01:53:27.623Z,10.53
2017-06-21T01:55:54.367Z,11.27
2017-06-21T01:58:21.048Z,11.27
2017-06-21T02:00:47.704Z,10.60
2017-06-21T02:03:14.408Z,10.73
2017-06-21T02:05:41.065Z,9.53
2017-06-21T02:08:07.730Z,10.40
2017-06-21T02:10:34.428Z,9.27
2017-06-21T02:13:01.113Z,10.67
2017-06-21T02:15:27.772Z,10.33
2017-06-21T02:17:54.475Z,9.80
2017-06-21T02:20:21.131Z,9.70
2017-06-21T02:22:47.797Z,10.20
2017-06-21T02:25:14.488Z,9.87
2017-06-21T02:27:41.155Z,10.30
2017-06-21T02:30:07.853Z,10.23
2017-06-21T02:32:34.533Z,10.40
2017-06-21T02:35:01.241Z,10.47
2017-06-21T02:37:27.905Z,10.93
2017-06-21T02:39:54.606Z,10.03
2017-06-21T02:42:21.270Z,9.87
2017-06-21T02:44:47.940Z,10.60
2017-06-21T02:47:14.668Z,10.27
2017-06-21T02:49:41.320Z,9.77
2017-06-21T02:52:07.991Z,10.30
2017-06-21T02:54:34.835Z,10.50
2017-06-21T02:57:01.500Z,10.60
2017-06-21T02:59:28.160Z,9.90
2017-06-21T03:01:54.892Z,10.20
2017-06-21T03:04:22.223Z,9.83
2017-06-21T03:06:48.883Z,10.50
2017-06-21T03:09:15.620Z,11.10
2017-06-21T03:11:43.248Z,9.63
2017-06-21T03:14:09.916Z,10.40
2017-06-21T03:16:36.607Z,10.67
2017-06-21T03:19:03.265Z,10.03
2017-06-21T03:21:29.932Z,10.13
2017-06-21T03:23:57.608Z,10.80
2017-06-21T03:26:24.311Z,11.03
2017-06-21T03:28:51.984Z,10.00
2017-06-21T03:31:18.660Z,10.77
2017-06-21T03:33:45.350Z,10.07
2017-06-21T03:36:13.025Z,10.40
2017-06-21T03:38:40.698Z,10.67
2017-06-21T03:41:07.359Z,10.80
2017-06-21T03:43:34.047Z,10.07
2017-06-21T03:46:00.756Z,10.43
2017-06-21T03:48:27.423Z,10.83
2017-06-21T03:50:54.091Z,10.27
2017-06-21T03:53:20.796Z,10.53
2017-06-21T03:55:47.465Z,10.90
2017-06-21T03:58:14.189Z,11.60
2017-06-21T04:00:40.865Z,10.50
2017-06-21T04:03:07.552Z,11.60
2017-06-21T04:05:34.244Z,12.10
2017-06-21T04:08:00.940Z,12.60
2017-06-21T04:10:27.634Z,11.23
2017-06-21T04:12:54.315Z,9.60
2017-06-21T04:15:20.989Z,9.70
2017-06-21T04:17:47.642Z,9.77
2017-06-21T04:20:14.329Z,9.87
2017-06-21T04:22:40.999Z,9.77
2017-06-21T04:25:07.691Z,9.17
2017-06-21T04:27:34.368Z,9.70
2017-06-21T04:30:01.015Z,9.70
2017-06-21T04:32:27.705Z,9.90
2017-06-21T04:34:54.385Z,8.67
2017-06-21T04:37:21.243Z,9.10
2017-06-21T04:39:47.904Z,9.67
2017-06-21T04:42:14.581Z,9.30
2017-06-21T04:44:41.271Z,9.27
2017-06-21T04:47:07.937Z,10.20
2017-06-21T04:49:34.599Z,10.50
2017-06-21T04:52:02.292Z,10.80
2017-06-21T04:54:28.952Z,9.70
2017-06-21T04:56:55.609Z,10.13
2017-06-21T04:59:22.309Z,10.00
2017-06-21T05:01:48.976Z,10.00
2017-06-21T05:04:15.663Z,8.87
2017-06-21T05:06:42.339Z,8.50
2017-06-21T05:09:08.991Z,8.70
2017-06-21T05:11:35.689Z,8.60
2017-06-21T05:14:02.342Z,9.50
2017-06-21T05:16:29.026Z,8.73
2017-06-21T05:18:55.703Z,8.83
2017-06-21T05:21:22.360Z,8.43
2017-06-21T05:23:49.036Z,8.10
2017-06-21T12:31:20.293Z,7.23
2017-06-21T12:33:46.949Z,6.17
2017-06-21T12:36:14.100Z,6.70
2017-06-21T12:38:40.784Z,5.80
2017-06-21T12:41:07.461Z,5.83
2017-06-21T12:43:34.182Z,5.30
2017-06-21T12:46:00.908Z,5.37
2017-06-21T12:48:27.828Z,5.10
2017-06-21T12:50:54.496Z,4.40
2017-06-21T12:53:21.288Z,5.03
2017-06-21T12:55:47.965Z,4.40
2017-06-21T12:58:14.765Z,5.13
2017-06-21T13:00:41.448Z,4.50
2017-06-21T13:03:08.121Z,4.77
2017-06-21T13:05:34.873Z,4.57
2017-06-21T13:08:01.619Z,4.90
2017-06-21T13:10:28.355Z,4.30
2017-06-21T13:12:55.037Z,4.87
2017-06-21T13:15:21.799Z,4.97
2017-06-21T13:17:48.497Z,4.40
2017-06-21T13:20:15.309Z,4.80
2017-06-21T13:22:42.040Z,5.40
2017-06-21T13:25:08.701Z,5.40
2017-06-21T13:27:35.368Z,5.33
2017-06-21T13:30:02.133Z,5.50
2017-06-21T13:32:28.786Z,6.23
2017-06-21T13:34:55.464Z,5.50
2017-06-21T13:37:22.166Z,5.83
2017-06-21T13:39:48.818Z,6.00
2017-06-21T13:42:15.471Z,6.43
2017-06-21T13:44:42.175Z,6.03
2017-06-21T13:47:08.828Z,5.90
2017-06-21T13:49:35.476Z,6.03
2017-06-21T13:52:02.217Z,5.90
2017-06-21T13:54:28.891Z,6.60
2017-06-21T13:56:55.546Z,6.63
2017-06-21T13:59:22.215Z,6.57
2017-06-21T14:01:48.875Z,7.13
2017-06-21T14:04:15.544Z,7.30
2017-06-21T14:06:42.239Z,7.40
2017-06-21T14:09:08.895Z,7.27
2017-06-21T14:11:35.568Z,7.30
2017-06-21T14:14:02.253Z,7.60
2017-06-21T14:16:28.940Z,7.30
2017-06-21T14:18:55.841Z,7.50
2017-06-21T14:21:22.560Z,6.87
2017-06-21T14:23:49.210Z,7.53
2017-06-21T14:26:15.859Z,7.20
2017-06-21T14:28:42.587Z,7.10
2017-06-21T14:31:09.307Z,6.80
2017-06-21T14:33:35.957Z,6.90
2017-06-21T14:36:02.636Z,7.00
2017-06-21T14:38:29.297Z,6.70
2017-06-21T14:40:56.063Z,6.60
2017-06-21T14:43:22.758Z,6.97
2017-06-21T14:45:49.415Z,7.37
2017-06-21T14:48:16.076Z,7.20
2017-06-21T14:50:42.748Z,6.70
2017-06-21T14:53:09.401Z,6.60
2017-06-21T14:55:36.072Z,6.70
2017-06-21T14:58:02.931Z,6.83
2017-06-21T15:00:29.866Z,6.90
2017-06-21T15:02:56.526Z,6.70
2017-06-21T15:05:23.369Z,7.17
2017-06-21T15:07:50.025Z,7.70
2017-06-21T15:10:16.677Z,7.80
2017-06-21T15:12:43.370Z,7.50
2017-06-21T15:15:10.094Z,8.00
2017-06-21T15:17:36.747Z,7.73
2017-06-21T15:20:03.459Z,8.30
2017-06-21T15:22:30.195Z,8.47
2017-06-21T15:24:56.857Z,7.50
2017-06-21T15:27:23.674Z,7.87
2017-06-21T15:29:50.338Z,8.07
2017-06-21T15:32:17.000Z,7.67
2017-06-21T15:34:43.681Z,8.10
2017-06-21T15:37:10.348Z,7.23
2017-06-21T15:39:37.003Z,7.50
2017-06-21T15:42:03.692Z,8.60
2017-06-21T15:44:30.363Z,7.70
2017-06-21T15:46:57.024Z,7.57
2017-06-21T15:49:23.695Z,9.17
2017-06-21T15:51:50.476Z,7.87
2017-06-21T15:54:17.130Z,8.10
2017-06-21T15:56:43.799Z,7.57
2017-06-21T15:59:10.449Z,8.60
2017-06-21T16:01:37.109Z,8.30
2017-06-21T16:04:03.805Z,8.90
2017-06-21T16:06:30.464Z,9.60
2017-06-21T16:08:57.153Z,9.13
2017-06-21T16:11:23.824Z,8.70
2017-06-21T16:13:50.478Z,9.20
2017-06-21T16:16:17.132Z,9.17
2017-06-21T16:18:43.825Z,9.30
2017-06-21T16:21:10.493Z,9.40
2017-06-21T16:23:37.151Z,8.60
2017-06-21T16:26:03.844Z,10.20
2017-06-21T16:28:30.493Z,8.40
2017-06-21T16:30:57.147Z,9.17
2017-06-21T16:33:23.835Z,9.37
2017-06-21T16:35:50.499Z,8.60
2017-06-21T16:38:17.155Z,8.43
2017-06-21T16:40:43.872Z,9.10
2017-06-21T16:43:10.694Z,8.17
2017-06-21T16:45:37.370Z,9.40
2017-06-21T16:48:04.768Z,8.80
2017-06-21T16:50:32.358Z,7.83
2017-06-21T16:53:00.366Z,8.80
2017-06-21T16:55:28.051Z,9.30
2017-06-21T16:57:55.955Z,8.87
2017-06-21T17:00:24.091Z,9.00
2017-06-21T17:02:55.514Z,9.70
2017-06-21T17:05:24.027Z,9.33
2017-06-21T17:07:51.507Z,8.80
2017-06-21T17:10:18.569Z,9.13
2017-06-21T17:12:45.925Z,8.63
2017-06-21T17:15:13.479Z,9.27
2017-06-21T17:17:40.160Z,10.40
2017-06-21T17:20:06.819Z,9.10
2017-06-21T17:22:33.621Z,9.33
2017-06-21T17:25:00.285Z,9.43
2017-06-21T17:27:27.220Z,10.47
2017-06-21T17:29:53.913Z,11.90
2017-06-21T17:32:20.861Z,10.03
2017-06-21T17:34:47.523Z,11.00
2017-06-21T17:37:14.215Z,11.13
2017-06-21T17:39:40.887Z,11.50
2017-06-21T17:42:07.569Z,11.37
2017-06-21T17:44:34.250Z,9.47
2017-06-21T17:47:00.968Z,11.07
2017-06-21T17:49:27.740Z,11.40
2017-06-21T17:51:54.407Z,11.33
2017-06-21T17:54:21.063Z,12.60
2017-06-21T17:56:47.787Z,12.20
2017-06-21T17:59:14.453Z,11.70
2017-06-21T18:01:41.157Z,11.80
2017-06-21T18:04:07.840Z,11.80
2017-06-21T18:06:34.505Z,12.43
2017-06-21T18:09:01.173Z,12.23
2017-06-21T18:11:27.952Z,12.00
2017-06-21T18:13:54.624Z,12.37
2017-06-21T18:16:21.300Z,12.27
2017-06-21T18:18:47.983Z,12.70
2017-06-21T18:21:14.645Z,11.40
2017-06-21T18:23:41.307Z,12.20
2017-06-21T18:26:08.014Z,12.00
2017-06-21T18:28:34.680Z,10.93
2017-06-21T18:31:01.335Z,11.60
2017-06-21T18:33:28.035Z,12.23
2017-06-21T18:35:54.745Z,11.40
2017-06-21T18:38:21.417Z,12.37
2017-06-21T18:40:48.103Z,11.40
2017-06-21T18:43:14.768Z,12.03
2017-06-21T18:45:41.427Z,13.33
2017-06-21T18:48:08.115Z,12.90
2017-06-21T18:50:34.777Z,11.90
2017-06-21T18:53:01.448Z,12.70
2017-06-21T18:55:28.143Z,12.87
2017-06-21T18:57:54.825Z,13.10
2017-06-21T19:00:21.590Z,12.63
2017-06-21T19:02:48.286Z,11.87
2017-06-21T19:05:14.952Z,12.50
2017-06-21T19:07:41.739Z,12.07
2017-06-21T19:10:08.425Z,12.23
2017-06-21T19:12:35.128Z,12.27
2017-06-21T19:15:01.811Z,12.40
2017-06-21T19:17:28.503Z,13.10
2017-06-21T19:19:55.493Z,13.30
2017-06-21T19:22:22.157Z,12.93
2017-06-21T19:24:48.861Z,13.07
2017-06-21T19:27:15.524Z,12.60
2017-06-21T19:29:42.189Z,12.77
2017-06-21T19:32:08.902Z,12.80
2017-06-21T19:34:35.557Z,12.97
2017-06-21T19:37:02.221Z,13.57
2017-06-21T19:39:28.969Z,14.10
2017-06-21T19:41:55.657Z,13.80
2017-06-21T19:44:22.319Z,13.27
2017-06-21T19:46:49.049Z,13.40
2017-06-21T19:49:15.717Z,14.07
2017-06-21T19:51:42.411Z,15.20
2017-06-21T19:54:09.087Z,15.33
2017-06-21T19:56:35.822Z,14.97
2017-06-21T19:59:02.512Z,14.90
2017-06-21T20:01:29.192Z,14.47
2017-06-21T20:03:55.862Z,15.60
2017-06-21T20:06:22.527Z,15.03
2017-06-21T20:08:49.339Z,14.70
2017-06-21T20:11:16.082Z,14.13
2017-06-21T20:13:42.801Z,16.13
2017-06-21T20:16:09.491Z,15.50
2017-06-21T20:18:36.155Z,15.63
2017-06-21T20:21:02.839Z,15.03
2017-06-21T20:23:29.507Z,15.80
2017-06-21T20:25:56.206Z,15.50
2017-06-21T20:28:22.879Z,15.03
2017-06-21T20:30:49.594Z,15.00
2017-06-21T20:33:16.392Z,15.17
2017-06-21T20:35:43.135Z,14.80
2017-06-21T20:38:09.861Z,15.60
2017-06-21T20:40:36.568Z,15.50
2017-06-21T20:43:03.292Z,15.87
2017-06-21T20:45:29.991Z,16.07
2017-06-21T20:47:56.661Z,15.80
2017-06-21T20:50:23.541Z,15.07
2017-06-21T20:52:50.218Z,15.37
2017-06-21T20:55:16.895Z,15.67
2017-06-21T20:57:43.560Z,14.60
2017-06-21T21:00:10.229Z,14.97
2017-06-21T21:02:36.915Z,15.00
2017-06-21T21:05:03.640Z,15.43
2017-06-21T21:07:30.370Z,14.73
2017-06-21T21:09:57.075Z,14.80
2017-06-21T21:12:24.847Z,14.10
2017-06-21T21:14:51.746Z,15.30
2017-06-21T21:17:18.431Z,13.53
2017-06-21T21:19:45.135Z,13.00
2017-06-21T21:22:12.104Z,13.37
2017-06-21T21:24:38.792Z,14.30
2017-06-21T21:27:05.586Z,14.77
2017-06-21T21:29:32.315Z,13.83
2017-06-21T21:31:58.999Z,14.40
2017-06-21T21:34:25.714Z,14.70
2017-06-21T21:36:52.406Z,14.10
2017-06-21T21:39:19.097Z,14.00
2017-06-21T21:41:45.778Z,12.80
2017-06-21T21:44:12.472Z,13.20
2017-06-21T21:46:39.157Z,14.20
2017-06-21T21:49:06.467Z,13.37
2017-06-21T21:51:34.304Z,14.07
2017-06-21T21:54:01.075Z,14.40
2017-06-21T21:56:27.770Z,14.30
2017-06-21T21:58:54.559Z,14.43
2017-06-21T22:01:21.243Z,14.33
2017-06-21T22:03:47.940Z,14.47
2017-06-21T22:06:14.974Z,13.37
2017-06-21T22:08:41.673Z,14.27
2017-06-21T22:11:08.449Z,15.67
2017-06-21T22:13:35.149Z,15.07
2017-06-21T22:16:01.847Z,14.87
2017-06-21T22:18:28.584Z,15.50
2017-06-21T22:20:55.270Z,13.37
2017-06-21T22:23:21.951Z,15.73
2017-06-21T22:25:48.641Z,14.50
2017-06-21T22:28:15.340Z,14.70
2017-06-21T22:30:42.033Z,15.30
2017-06-21T22:33:08.716Z,16.00
2017-06-21T22:35:35.397Z,15.50
2017-06-21T22:38:02.192Z,15.90
2017-06-21T22:40:28.934Z,16.10
2017-06-21T22:42:55.621Z,16.53
2017-06-21T22:45:22.314Z,15.63
2017-06-21T22:47:48.995Z,15.83
2017-06-21T22:50:15.701Z,16.40
2017-06-21T22:52:42.399Z,17.70
2017-06-21T22:55:09.108Z,16.80
2017-06-21T22:57:35.808Z,16.53
2017-06-21T23:00:02.494Z,15.97
2017-06-21T23:02:29.187Z,16.67
2017-06-21T23:04:55.865Z,15.90
2017-06-21T23:07:22.572Z,17.93
2017-06-21T23:09:49.307Z,17.57
2017-06-21T23:12:16.170Z,17.10
2017-06-21T23:14:42.884Z,16.57
2017-06-21T23:17:09.600Z,17.17
2017-06-21T23:19:36.280Z,15.90
2017-06-21T23:22:03.110Z,18.00
2017-06-21T23:24:29.799Z,17.87
2017-06-21T23:26:56.487Z,16.40
2017-06-21T23:29:23.163Z,17.10
2017-06-21T23:31:49.856Z,16.07
2017-06-21T23:34:16.542Z,16.73
2017-06-21T23:36:43.231Z,18.40
2017-06-21T23:39:09.916Z,16.83
2017-06-21T23:41:36.600Z,17.20
2017-06-21T23:44:03.287Z,16.60
2017-06-21T23:46:29.999Z,16.60
2017-06-21T23:48:56.676Z,16.87
2017-06-21T23:51:23.376Z,17.93
2017-06-21T23:53:50.055Z,17.87
2017-06-21T23:56:16.751Z,17.30
2017-06-21T23:58:43.423Z,16.67
